sensor_id;sensor_type;location;lat;lon;timestamp;P1;durP1;ratioP1;P2;durP2;ratioP2
45388;SDS011;31127;52.078;4.370;2022-12-10T00:00:30;155.68;;;41.65;;
45388;SDS011;31127;52.078;4.370;2022-12-10T00:05:25;143.63;;;47.10;;
45388;SDS011;31127;52.078;4.370;2022-12-10T00:10:21;155.23;;;47.20;;
45388;SDS011;31127;52.078;4.370;2022-12-10T00:15:16;118.27;;;35.70;;
45388;SDS011;31127;52.078;4.370;2022-12-10T00:20:31;166.48;;;49.10;;
45388;SDS011;31127;52.078;4.370;2022-12-10T00:25:47;147.85;;;44.13;;
45388;SDS011;31127;52.078;4.370;2022-12-10T00:30:42;160.70;;;49.70;;
45388;SDS011;31127;52.078;4.370;2022-12-10T00:36:04;148.95;;;47.60;;
45388;SDS011;31127;52.078;4.370;2022-12-10T00:41:00;163.32;;;51.30;;
45388;SDS011;31127;52.078;4.370;2022-12-10T00:45:56;155.37;;;47.07;;
45388;SDS011;31127;52.078;4.370;2022-12-10T00:55:53;144.93;;;46.38;;
45388;SDS011;31127;52.078;4.370;2022-12-10T01:06:14;159.50;;;45.58;;
45388;SDS011;31127;52.078;4.370;2022-12-10T01:11:11;130.50;;;39.13;;
45388;SDS011;31127;52.078;4.370;2022-12-10T01:16:08;141.95;;;44.17;;
45388;SDS011;31127;52.078;4.370;2022-12-10T01:21:04;155.93;;;46.92;;
45388;SDS011;31127;52.078;4.370;2022-12-10T01:26:22;141.60;;;43.63;;
45388;SDS011;31127;52.078;4.370;2022-12-10T01:31:18;146.70;;;46.30;;
45388;SDS011;31127;52.078;4.370;2022-12-10T01:36:35;144.65;;;47.10;;
45388;SDS011;31127;52.078;4.370;2022-12-10T01:41:35;177.50;;;48.83;;
45388;SDS011;31127;52.078;4.370;2022-12-10T01:46:52;180.38;;;51.80;;
45388;SDS011;31127;52.078;4.370;2022-12-10T01:51:50;183.43;;;47.38;;
45388;SDS011;31127;52.078;4.370;2022-12-10T01:56:47;300.77;;;57.30;;
45388;SDS011;31127;52.078;4.370;2022-12-10T02:07:06;266.60;;;61.28;;
45388;SDS011;31127;52.078;4.370;2022-12-10T02:12:10;223.77;;;55.05;;
45388;SDS011;31127;52.078;4.370;2022-12-10T02:17:19;303.48;;;63.47;;
45388;SDS011;31127;52.078;4.370;2022-12-10T02:22:16;308.17;;;54.65;;
45388;SDS011;31127;52.078;4.370;2022-12-10T02:27:21;302.67;;;57.13;;
45388;SDS011;31127;52.078;4.370;2022-12-10T02:32:22;280.88;;;48.72;;
45388;SDS011;31127;52.078;4.370;2022-12-10T02:37:21;386.45;;;68.53;;
45388;SDS011;31127;52.078;4.370;2022-12-10T02:47:18;461.80;;;59.38;;
45388;SDS011;31127;52.078;4.370;2022-12-10T02:52:18;310.10;;;55.65;;
45388;SDS011;31127;52.078;4.370;2022-12-10T02:57:40;323.25;;;56.90;;
45388;SDS011;31127;52.078;4.370;2022-12-10T03:12:51;526.90;;;62.50;;
45388;SDS011;31127;52.078;4.370;2022-12-10T03:17:50;524.53;;;60.63;;
45388;SDS011;31127;52.078;4.370;2022-12-10T03:22:46;459.95;;;60.92;;
45388;SDS011;31127;52.078;4.370;2022-12-10T03:27:42;463.08;;;60.08;;
45388;SDS011;31127;52.078;4.370;2022-12-10T03:32:58;507.00;;;64.10;;
45388;SDS011;31127;52.078;4.370;2022-12-10T03:37:54;519.75;;;68.60;;
45388;SDS011;31127;52.078;4.370;2022-12-10T03:42:49;486.42;;;59.17;;
45388;SDS011;31127;52.078;4.370;2022-12-10T03:48:05;369.83;;;49.08;;
45388;SDS011;31127;52.078;4.370;2022-12-10T03:53:00;520.30;;;63.38;;
45388;SDS011;31127;52.078;4.370;2022-12-10T03:57:55;869.10;;;92.13;;
45388;SDS011;31127;52.078;4.370;2022-12-10T04:03:11;478.08;;;64.47;;
45388;SDS011;31127;52.078;4.370;2022-12-10T04:08:06;480.33;;;54.70;;
45388;SDS011;31127;52.078;4.370;2022-12-10T04:13:01;386.42;;;55.40;;
45388;SDS011;31127;52.078;4.370;2022-12-10T04:18:15;438.80;;;62.15;;
45388;SDS011;31127;52.078;4.370;2022-12-10T04:23:31;623.35;;;75.53;;
45388;SDS011;31127;52.078;4.370;2022-12-10T04:28:45;531.83;;;58.50;;
45388;SDS011;31127;52.078;4.370;2022-12-10T04:34:01;582.80;;;69.35;;
45388;SDS011;31127;52.078;4.370;2022-12-10T04:38:56;500.17;;;68.43;;
45388;SDS011;31127;52.078;4.370;2022-12-10T04:43:55;420.08;;;56.65;;
45388;SDS011;31127;52.078;4.370;2022-12-10T04:49:11;570.55;;;66.10;;
45388;SDS011;31127;52.078;4.370;2022-12-10T04:54:27;392.60;;;52.95;;
45388;SDS011;31127;52.078;4.370;2022-12-10T04:59:22;460.35;;;60.47;;
45388;SDS011;31127;52.078;4.370;2022-12-10T05:04:18;515.65;;;66.15;;
45388;SDS011;31127;52.078;4.370;2022-12-10T05:09:13;469.42;;;59.33;;
45388;SDS011;31127;52.078;4.370;2022-12-10T05:14:10;393.42;;;50.33;;
45388;SDS011;31127;52.078;4.370;2022-12-10T05:19:05;490.77;;;66.32;;
45388;SDS011;31127;52.078;4.370;2022-12-10T05:24:20;366.45;;;49.33;;
45388;SDS011;31127;52.078;4.370;2022-12-10T05:29:16;384.10;;;53.90;;
45388;SDS011;31127;52.078;4.370;2022-12-10T05:34:31;369.73;;;38.70;;
45388;SDS011;31127;52.078;4.370;2022-12-10T05:39:27;416.95;;;51.40;;
45388;SDS011;31127;52.078;4.370;2022-12-10T05:44:22;431.65;;;53.70;;
45388;SDS011;31127;52.078;4.370;2022-12-10T05:49:18;504.73;;;65.13;;
45388;SDS011;31127;52.078;4.370;2022-12-10T05:54:34;424.85;;;49.55;;
45388;SDS011;31127;52.078;4.370;2022-12-10T05:59:49;456.60;;;56.05;;
45388;SDS011;31127;52.078;4.370;2022-12-10T06:05:07;413.98;;;50.75;;
45388;SDS011;31127;52.078;4.370;2022-12-10T06:10:02;371.48;;;47.38;;
45388;SDS011;31127;52.078;4.370;2022-12-10T06:14:58;342.52;;;44.60;;
45388;SDS011;31127;52.078;4.370;2022-12-10T06:19:53;384.97;;;54.23;;
45388;SDS011;31127;52.078;4.370;2022-12-10T06:24:49;309.40;;;40.63;;
45388;SDS011;31127;52.078;4.370;2022-12-10T06:29:44;407.00;;;48.27;;
45388;SDS011;31127;52.078;4.370;2022-12-10T06:34:39;421.67;;;56.15;;
45388;SDS011;31127;52.078;4.370;2022-12-10T06:39:35;392.00;;;51.88;;
45388;SDS011;31127;52.078;4.370;2022-12-10T06:44:50;349.20;;;48.97;;
45388;SDS011;31127;52.078;4.370;2022-12-10T06:49:45;373.40;;;54.60;;
45388;SDS011;31127;52.078;4.370;2022-12-10T06:54:40;325.35;;;47.30;;
45388;SDS011;31127;52.078;4.370;2022-12-10T06:59:36;225.77;;;37.30;;
45388;SDS011;31127;52.078;4.370;2022-12-10T07:04:31;1866.63;;;272.97;;
45388;SDS011;31127;52.078;4.370;2022-12-10T07:09:26;279.77;;;42.20;;
45388;SDS011;31127;52.078;4.370;2022-12-10T07:14:22;650.10;;;84.23;;
45388;SDS011;31127;52.078;4.370;2022-12-10T07:19:17;188.95;;;33.08;;
45388;SDS011;31127;52.078;4.370;2022-12-10T07:24:13;138.15;;;28.25;;
45388;SDS011;31127;52.078;4.370;2022-12-10T07:29:18;271.88;;;48.83;;
45388;SDS011;31127;52.078;4.370;2022-12-10T07:34:14;207.35;;;46.88;;
45388;SDS011;31127;52.078;4.370;2022-12-10T07:39:09;299.50;;;51.85;;
45388;SDS011;31127;52.078;4.370;2022-12-10T07:44:12;477.45;;;68.53;;
45388;SDS011;31127;52.078;4.370;2022-12-10T07:49:07;477.48;;;55.67;;
45388;SDS011;31127;52.078;4.370;2022-12-10T07:54:03;407.73;;;62.05;;
45388;SDS011;31127;52.078;4.370;2022-12-10T07:58:58;482.98;;;63.30;;
45388;SDS011;31127;52.078;4.370;2022-12-10T08:03:54;324.83;;;53.33;;
45388;SDS011;31127;52.078;4.370;2022-12-10T08:09:13;264.50;;;48.47;;
45388;SDS011;31127;52.078;4.370;2022-12-10T08:14:08;330.58;;;50.05;;
45388;SDS011;31127;52.078;4.370;2022-12-10T08:19:23;392.48;;;56.55;;
45388;SDS011;31127;52.078;4.370;2022-12-10T08:24:19;336.73;;;48.73;;
45388;SDS011;31127;52.078;4.370;2022-12-10T08:29:34;220.90;;;42.35;;
45388;SDS011;31127;52.078;4.370;2022-12-10T08:34:30;304.98;;;51.47;;
45388;SDS011;31127;52.078;4.370;2022-12-10T08:39:45;256.15;;;47.92;;
45388;SDS011;31127;52.078;4.370;2022-12-10T08:45:00;237.25;;;50.03;;
45388;SDS011;31127;52.078;4.370;2022-12-10T08:49:56;295.67;;;47.53;;
45388;SDS011;31127;52.078;4.370;2022-12-10T08:54:52;243.98;;;44.35;;
45388;SDS011;31127;52.078;4.370;2022-12-10T08:59:54;197.27;;;43.83;;
45388;SDS011;31127;52.078;4.370;2022-12-10T09:05:10;187.35;;;42.42;;
45388;SDS011;31127;52.078;4.370;2022-12-10T09:10:05;222.27;;;47.88;;
45388;SDS011;31127;52.078;4.370;2022-12-10T09:15:01;279.30;;;48.55;;
45388;SDS011;31127;52.078;4.370;2022-12-10T09:19:56;236.48;;;45.75;;
45388;SDS011;31127;52.078;4.370;2022-12-10T09:24:52;217.43;;;39.97;;
45388;SDS011;31127;52.078;4.370;2022-12-10T09:29:47;197.37;;;44.73;;
45388;SDS011;31127;52.078;4.370;2022-12-10T09:34:42;279.35;;;51.47;;
45388;SDS011;31127;52.078;4.370;2022-12-10T09:39:38;169.45;;;41.83;;
45388;SDS011;31127;52.078;4.370;2022-12-10T09:44:37;251.80;;;48.58;;
45388;SDS011;31127;52.078;4.370;2022-12-10T09:54:59;163.82;;;36.15;;
45388;SDS011;31127;52.078;4.370;2022-12-10T10:00:10;190.73;;;37.72;;
45388;SDS011;31127;52.078;4.370;2022-12-10T10:05:38;186.65;;;39.78;;
45388;SDS011;31127;52.078;4.370;2022-12-10T10:10:54;208.25;;;44.33;;
45388;SDS011;31127;52.078;4.370;2022-12-10T10:15:50;203.90;;;41.60;;
45388;SDS011;31127;52.078;4.370;2022-12-10T10:20:48;180.00;;;36.30;;
45388;SDS011;31127;52.078;4.370;2022-12-10T10:25:44;202.38;;;42.50;;
45388;SDS011;31127;52.078;4.370;2022-12-10T10:30:56;225.05;;;42.72;;
45388;SDS011;31127;52.078;4.370;2022-12-10T10:35:55;220.20;;;46.65;;
45388;SDS011;31127;52.078;4.370;2022-12-10T10:40:52;142.30;;;35.20;;
45388;SDS011;31127;52.078;4.370;2022-12-10T10:46:12;101.43;;;30.33;;
45388;SDS011;31127;52.078;4.370;2022-12-10T10:51:28;167.50;;;42.33;;
45388;SDS011;31127;52.078;4.370;2022-12-10T11:01:19;129.27;;;37.47;;
45388;SDS011;31127;52.078;4.370;2022-12-10T11:06:34;120.07;;;37.33;;
45388;SDS011;31127;52.078;4.370;2022-12-10T11:16:25;139.60;;;38.20;;
45388;SDS011;31127;52.078;4.370;2022-12-10T11:21:21;97.43;;;26.17;;
45388;SDS011;31127;52.078;4.370;2022-12-10T11:36:27;151.07;;;38.95;;
45388;SDS011;31127;52.078;4.370;2022-12-10T11:41:48;167.00;;;41.17;;
45388;SDS011;31127;52.078;4.370;2022-12-10T12:08:02;138.30;;;37.10;;
45388;SDS011;31127;52.078;4.370;2022-12-10T12:13:12;142.13;;;35.22;;
45388;SDS011;31127;52.078;4.370;2022-12-10T12:28:41;146.55;;;37.40;;
45388;SDS011;31127;52.078;4.370;2022-12-10T12:34:02;114.18;;;36.05;;
45388;SDS011;31127;52.078;4.370;2022-12-10T12:49:24;133.95;;;31.00;;
45388;SDS011;31127;52.078;4.370;2022-12-10T12:54:21;150.38;;;36.13;;
45388;SDS011;31127;52.078;4.370;2022-12-10T13:04:31;113.32;;;36.53;;
45388;SDS011;31127;52.078;4.370;2022-12-10T13:09:27;172.73;;;38.07;;
45388;SDS011;31127;52.078;4.370;2022-12-10T13:19:39;170.57;;;42.25;;
45388;SDS011;31127;52.078;4.370;2022-12-10T13:45:06;103.72;;;35.05;;
45388;SDS011;31127;52.078;4.370;2022-12-10T14:00:53;102.97;;;38.58;;
45388;SDS011;31127;52.078;4.370;2022-12-10T14:10:56;97.32;;;37.10;;
45388;SDS011;31127;52.078;4.370;2022-12-10T14:15:55;103.05;;;39.15;;
45388;SDS011;31127;52.078;4.370;2022-12-10T14:20:53;103.60;;;39.03;;
45388;SDS011;31127;52.078;4.370;2022-12-10T14:25:50;101.47;;;37.05;;
45388;SDS011;31127;52.078;4.370;2022-12-10T14:30:47;101.15;;;38.72;;
45388;SDS011;31127;52.078;4.370;2022-12-10T14:35:46;96.13;;;37.17;;
45388;SDS011;31127;52.078;4.370;2022-12-10T14:41:02;96.75;;;37.47;;
45388;SDS011;31127;52.078;4.370;2022-12-10T14:45:58;85.95;;;38.90;;
45388;SDS011;31127;52.078;4.370;2022-12-10T14:51:15;306.35;;;54.95;;
45388;SDS011;31127;52.078;4.370;2022-12-10T15:01:47;90.93;;;37.38;;
45388;SDS011;31127;52.078;4.370;2022-12-10T15:07:04;91.90;;;38.03;;
45388;SDS011;31127;52.078;4.370;2022-12-10T15:12:00;98.20;;;37.03;;
45388;SDS011;31127;52.078;4.370;2022-12-10T15:16:56;118.18;;;40.42;;
45388;SDS011;31127;52.078;4.370;2022-12-10T15:21:52;102.45;;;39.50;;
45388;SDS011;31127;52.078;4.370;2022-12-10T15:26:49;106.30;;;40.88;;
45388;SDS011;31127;52.078;4.370;2022-12-10T15:31:44;111.82;;;41.40;;
45388;SDS011;31127;52.078;4.370;2022-12-10T15:36:43;129.18;;;41.00;;
45388;SDS011;31127;52.078;4.370;2022-12-10T15:41:44;150.52;;;45.50;;
45388;SDS011;31127;52.078;4.370;2022-12-10T15:46:50;113.15;;;41.80;;
45388;SDS011;31127;52.078;4.370;2022-12-10T15:51:50;115.13;;;42.20;;
45388;SDS011;31127;52.078;4.370;2022-12-10T15:56:45;130.80;;;45.45;;
45388;SDS011;31127;52.078;4.370;2022-12-10T16:01:41;139.35;;;47.13;;
45388;SDS011;31127;52.078;4.370;2022-12-10T16:06:36;134.60;;;46.35;;
45388;SDS011;31127;52.078;4.370;2022-12-10T16:11:51;128.50;;;46.03;;
45388;SDS011;31127;52.078;4.370;2022-12-10T16:16:47;97.47;;;34.65;;
45388;SDS011;31127;52.078;4.370;2022-12-10T16:21:42;111.33;;;39.10;;
45388;SDS011;31127;52.078;4.370;2022-12-10T16:26:57;104.93;;;41.70;;
45388;SDS011;31127;52.078;4.370;2022-12-10T16:31:53;117.13;;;42.00;;
45388;SDS011;31127;52.078;4.370;2022-12-10T16:37:08;128.85;;;47.95;;
45388;SDS011;31127;52.078;4.370;2022-12-10T16:42:04;101.75;;;40.22;;
45388;SDS011;31127;52.078;4.370;2022-12-10T16:46:59;91.47;;;37.75;;
45388;SDS011;31127;52.078;4.370;2022-12-10T16:51:55;102.67;;;38.97;;
45388;SDS011;31127;52.078;4.370;2022-12-10T16:56:50;90.50;;;35.10;;
45388;SDS011;31127;52.078;4.370;2022-12-10T17:01:45;84.53;;;35.20;;
45388;SDS011;31127;52.078;4.370;2022-12-10T17:06:41;93.43;;;36.10;;
45388;SDS011;31127;52.078;4.370;2022-12-10T17:11:38;100.57;;;39.00;;
45388;SDS011;31127;52.078;4.370;2022-12-10T17:16:40;107.22;;;40.47;;
45388;SDS011;31127;52.078;4.370;2022-12-10T17:21:55;130.35;;;46.08;;
45388;SDS011;31127;52.078;4.370;2022-12-10T17:26:51;123.93;;;41.53;;
45388;SDS011;31127;52.078;4.370;2022-12-10T17:32:09;110.97;;;42.65;;
45388;SDS011;31127;52.078;4.370;2022-12-10T17:37:21;115.90;;;44.95;;
45388;SDS011;31127;52.078;4.370;2022-12-10T17:42:17;114.93;;;43.95;;
45388;SDS011;31127;52.078;4.370;2022-12-10T17:47:15;110.30;;;42.57;;
45388;SDS011;31127;52.078;4.370;2022-12-10T17:52:30;105.13;;;41.17;;
45388;SDS011;31127;52.078;4.370;2022-12-10T17:57:46;118.63;;;44.40;;
45388;SDS011;31127;52.078;4.370;2022-12-10T18:02:41;104.18;;;41.67;;
45388;SDS011;31127;52.078;4.370;2022-12-10T18:07:37;104.63;;;37.22;;
45388;SDS011;31127;52.078;4.370;2022-12-10T18:12:33;94.60;;;35.55;;
45388;SDS011;31127;52.078;4.370;2022-12-10T18:17:28;75.32;;;31.40;;
45388;SDS011;31127;52.078;4.370;2022-12-10T18:22:24;105.60;;;33.30;;
45388;SDS011;31127;52.078;4.370;2022-12-10T18:27:39;68.22;;;28.58;;
45388;SDS011;31127;52.078;4.370;2022-12-10T18:32:54;68.00;;;26.75;;
45388;SDS011;31127;52.078;4.370;2022-12-10T18:37:50;62.90;;;26.35;;
45388;SDS011;31127;52.078;4.370;2022-12-10T18:42:45;52.33;;;23.75;;
45388;SDS011;31127;52.078;4.370;2022-12-10T18:47:41;61.70;;;28.23;;
45388;SDS011;31127;52.078;4.370;2022-12-10T18:52:36;55.20;;;24.88;;
45388;SDS011;31127;52.078;4.370;2022-12-10T18:57:52;44.45;;;22.88;;
45388;SDS011;31127;52.078;4.370;2022-12-10T19:02:47;37.15;;;20.15;;
45388;SDS011;31127;52.078;4.370;2022-12-10T19:08:02;35.42;;;19.65;;
45388;SDS011;31127;52.078;4.370;2022-12-10T19:13:18;41.33;;;20.38;;
45388;SDS011;31127;52.078;4.370;2022-12-10T19:18:14;35.95;;;19.92;;
45388;SDS011;31127;52.078;4.370;2022-12-10T19:23:10;31.15;;;18.52;;
45388;SDS011;31127;52.078;4.370;2022-12-10T19:28:05;32.77;;;18.83;;
45388;SDS011;31127;52.078;4.370;2022-12-10T19:33:01;36.22;;;20.00;;
45388;SDS011;31127;52.078;4.370;2022-12-10T19:37:56;42.67;;;22.17;;
45388;SDS011;31127;52.078;4.370;2022-12-10T19:43:11;43.10;;;23.48;;
45388;SDS011;31127;52.078;4.370;2022-12-10T19:48:08;45.97;;;23.60;;
45388;SDS011;31127;52.078;4.370;2022-12-10T19:53:23;50.50;;;27.52;;
45388;SDS011;31127;52.078;4.370;2022-12-10T19:58:19;53.03;;;28.10;;
45388;SDS011;31127;52.078;4.370;2022-12-10T20:03:14;55.70;;;30.93;;
45388;SDS011;31127;52.078;4.370;2022-12-10T20:08:29;51.55;;;29.38;;
45388;SDS011;31127;52.078;4.370;2022-12-10T20:13:45;55.47;;;28.13;;
45388;SDS011;31127;52.078;4.370;2022-12-10T20:18:40;49.70;;;26.27;;
45388;SDS011;31127;52.078;4.370;2022-12-10T20:23:55;52.05;;;28.02;;
45388;SDS011;31127;52.078;4.370;2022-12-10T20:29:12;50.08;;;28.70;;
45388;SDS011;31127;52.078;4.370;2022-12-10T20:34:07;55.03;;;29.85;;
45388;SDS011;31127;52.078;4.370;2022-12-10T20:39:29;73.97;;;36.95;;
45388;SDS011;31127;52.078;4.370;2022-12-10T20:44:25;57.78;;;31.35;;
45388;SDS011;31127;52.078;4.370;2022-12-10T20:49:21;54.30;;;26.80;;
45388;SDS011;31127;52.078;4.370;2022-12-10T20:54:17;48.55;;;25.05;;
45388;SDS011;31127;52.078;4.370;2022-12-10T20:59:13;63.35;;;34.28;;
45388;SDS011;31127;52.078;4.370;2022-12-10T21:04:10;64.45;;;34.92;;
45388;SDS011;31127;52.078;4.370;2022-12-10T21:09:06;64.03;;;32.95;;
45388;SDS011;31127;52.078;4.370;2022-12-10T21:14:01;65.57;;;34.33;;
45388;SDS011;31127;52.078;4.370;2022-12-10T21:19:16;55.17;;;27.75;;
45388;SDS011;31127;52.078;4.370;2022-12-10T21:24:14;61.80;;;33.47;;
45388;SDS011;31127;52.078;4.370;2022-12-10T21:29:10;62.40;;;34.25;;
45388;SDS011;31127;52.078;4.370;2022-12-10T21:34:05;65.05;;;34.00;;
45388;SDS011;31127;52.078;4.370;2022-12-10T21:39:01;68.15;;;34.65;;
45388;SDS011;31127;52.078;4.370;2022-12-10T21:43:57;59.38;;;30.52;;
45388;SDS011;31127;52.078;4.370;2022-12-10T21:48:52;60.40;;;31.58;;
45388;SDS011;31127;52.078;4.370;2022-12-10T21:53:47;60.28;;;32.42;;
45388;SDS011;31127;52.078;4.370;2022-12-10T21:58:58;61.35;;;34.30;;
45388;SDS011;31127;52.078;4.370;2022-12-10T22:04:13;57.80;;;31.17;;
45388;SDS011;31127;52.078;4.370;2022-12-10T22:14:12;65.30;;;33.65;;
45388;SDS011;31127;52.078;4.370;2022-12-10T22:19:23;80.05;;;40.05;;
45388;SDS011;31127;52.078;4.370;2022-12-10T22:24:18;69.72;;;35.63;;
45388;SDS011;31127;52.078;4.370;2022-12-10T22:29:33;84.28;;;41.55;;
45388;SDS011;31127;52.078;4.370;2022-12-10T22:34:29;78.05;;;40.40;;
45388;SDS011;31127;52.078;4.370;2022-12-10T22:39:24;79.10;;;41.42;;
45388;SDS011;31127;52.078;4.370;2022-12-10T22:44:20;128.73;;;64.13;;
45388;SDS011;31127;52.078;4.370;2022-12-10T22:49:16;70.97;;;35.08;;
45388;SDS011;31127;52.078;4.370;2022-12-10T22:54:11;90.13;;;45.27;;
45388;SDS011;31127;52.078;4.370;2022-12-10T22:59:08;90.90;;;42.72;;
45388;SDS011;31127;52.078;4.370;2022-12-10T23:04:24;84.03;;;41.65;;
45388;SDS011;31127;52.078;4.370;2022-12-10T23:09:39;92.97;;;42.42;;
45388;SDS011;31127;52.078;4.370;2022-12-10T23:14:35;77.53;;;37.35;;
45388;SDS011;31127;52.078;4.370;2022-12-10T23:19:30;79.22;;;40.00;;
45388;SDS011;31127;52.078;4.370;2022-12-10T23:24:45;73.30;;;37.88;;
45388;SDS011;31127;52.078;4.370;2022-12-10T23:29:41;69.72;;;38.13;;
45388;SDS011;31127;52.078;4.370;2022-12-10T23:34:36;70.50;;;37.42;;
45388;SDS011;31127;52.078;4.370;2022-12-10T23:39:31;70.68;;;38.08;;
45388;SDS011;31127;52.078;4.370;2022-12-10T23:44:27;61.63;;;34.05;;
45388;SDS011;31127;52.078;4.370;2022-12-10T23:49:42;60.55;;;34.60;;
45388;SDS011;31127;52.078;4.370;2022-12-10T23:54:38;57.72;;;32.78;;
45388;SDS011;31127;52.078;4.370;2022-12-10T23:59:53;63.80;;;34.40;;
